createdAt,value
2022-08-12T00:00:01.796Z,22.26
2022-08-12T00:01:01.784Z,22.19
2022-08-12T00:02:05.112Z,22.25
2022-08-12T00:03:01.822Z,22.23
2022-08-12T00:04:01.751Z,22.19
2022-08-12T00:05:01.741Z,22.18
2022-08-12T00:06:05.070Z,22.22
2022-08-12T00:07:01.721Z,22.21
2022-08-12T00:08:01.708Z,22.18
2022-08-12T00:09:01.696Z,22.06
2022-08-12T00:10:01.684Z,22.06
2022-08-12T00:11:09.657Z,22.06
2022-08-12T00:12:01.675Z,22.04
2022-08-12T00:13:01.653Z,21.96
2022-08-12T00:14:01.642Z,21.99
2022-08-12T00:15:01.629Z,21.97
2022-08-12T00:16:01.620Z,21.92
2022-08-12T00:17:01.608Z,21.84
2022-08-12T00:18:01.600Z,21.84
2022-08-12T00:19:01.586Z,21.85
2022-08-12T00:20:01.578Z,21.78
2022-08-12T00:21:02.053Z,21.74
2022-08-12T00:22:01.555Z,21.75
2022-08-12T00:23:01.543Z,21.70
2022-08-12T00:24:01.533Z,21.68
2022-08-12T00:25:01.524Z,21.68
2022-08-12T00:26:23.386Z,21.65
2022-08-12T00:27:01.501Z,21.63
2022-08-12T00:28:01.487Z,21.62
2022-08-12T00:29:01.486Z,21.51
2022-08-12T00:30:01.462Z,21.48
2022-08-12T00:31:01.468Z,21.58
2022-08-12T00:32:01.752Z,21.51
2022-08-12T00:33:03.276Z,21.58
2022-08-12T00:34:01.418Z,21.53
2022-08-12T00:35:01.411Z,21.45
2022-08-12T00:36:01.462Z,21.41
2022-08-12T00:37:05.464Z,21.45
2022-08-12T00:38:01.376Z,21.45
2022-08-12T00:39:01.364Z,21.41
2022-08-12T00:40:01.351Z,21.26
2022-08-12T00:41:01.404Z,21.25
2022-08-12T00:42:01.328Z,21.28
2022-08-12T00:43:01.345Z,21.25
2022-08-12T00:44:01.307Z,21.26
2022-08-12T00:45:01.297Z,21.30
2022-08-12T00:46:01.363Z,21.26
2022-08-12T00:47:01.274Z,21.25
2022-08-12T00:48:01.261Z,21.25
2022-08-12T00:49:01.248Z,21.15
2022-08-12T00:50:01.243Z,21.17
2022-08-12T00:51:01.226Z,21.14
2022-08-12T00:52:01.216Z,21.20
2022-08-12T00:53:01.206Z,21.19
2022-08-12T00:54:01.192Z,21.14
2022-08-12T00:55:01.182Z,21.14
2022-08-12T00:56:01.225Z,21.14
2022-08-12T00:57:01.164Z,21.13
2022-08-12T00:58:01.149Z,21.04
2022-08-12T00:59:01.135Z,21.15
2022-08-12T01:00:01.126Z,21.15
2022-08-12T01:01:01.213Z,21.10
2022-08-12T01:02:12.171Z,21.08
2022-08-12T01:03:01.097Z,21.10
2022-08-12T01:04:01.077Z,21.10
2022-08-12T01:05:01.068Z,21.08
2022-08-12T01:06:01.054Z,21.03
2022-08-12T01:07:01.044Z,21.05
2022-08-12T01:08:01.046Z,21.04
2022-08-12T01:09:01.021Z,21.01
2022-08-12T01:10:01.008Z,21.03
2022-08-12T01:11:00.999Z,21.00
2022-08-12T01:12:00.991Z,21.01
2022-08-12T01:13:07.207Z,21.01
2022-08-12T01:14:00.962Z,20.90
2022-08-12T01:15:00.952Z,20.90
2022-08-12T01:16:01.016Z,20.90
2022-08-12T01:17:00.929Z,20.85
2022-08-12T01:18:00.942Z,20.85
2022-08-12T01:19:00.907Z,20.88
2022-08-12T01:20:00.893Z,20.86
2022-08-12T01:21:00.882Z,20.78
2022-08-12T01:22:00.870Z,20.71
2022-08-12T01:23:00.858Z,20.73
2022-08-12T01:24:00.848Z,20.66
2022-08-12T01:25:00.839Z,20.70
2022-08-12T01:26:00.828Z,20.55
2022-08-12T01:27:00.811Z,20.59
2022-08-12T01:28:00.818Z,20.66
2022-08-12T01:29:00.810Z,20.58
2022-08-12T01:30:00.785Z,20.52
2022-08-12T01:31:00.780Z,20.39
2022-08-12T01:32:00.765Z,20.52
2022-08-12T01:33:00.751Z,20.48
2022-08-12T01:34:00.729Z,20.40
2022-08-12T01:35:00.719Z,20.34
2022-08-12T01:36:08.445Z,20.27
2022-08-12T01:37:00.700Z,20.29
2022-08-12T01:38:00.684Z,20.33
2022-08-12T01:39:00.676Z,20.15
2022-08-12T01:40:36.099Z,20.14
2022-08-12T01:41:00.744Z,20.19
2022-08-12T01:42:00.640Z,20.08
2022-08-12T01:43:00.626Z,20.03
2022-08-12T01:44:00.616Z,20.02
2022-08-12T01:45:00.601Z,19.96
2022-08-12T01:46:00.590Z,19.87
2022-08-12T01:47:00.602Z,19.79
2022-08-12T01:48:00.567Z,19.67
2022-08-12T01:49:00.555Z,19.63
2022-08-12T01:50:00.544Z,19.55
2022-08-12T01:51:01.401Z,19.49
2022-08-12T01:52:15.860Z,19.52
2022-08-12T01:53:00.508Z,19.35
2022-08-12T01:54:00.493Z,19.30
2022-08-12T01:55:00.484Z,19.19
2022-08-12T01:56:00.475Z,19.16
2022-08-12T01:57:00.459Z,19.01
2022-08-12T01:58:01.165Z,19.05
2022-08-12T01:59:00.438Z,18.88
2022-08-12T02:00:00.447Z,18.86
2022-08-12T02:01:00.466Z,18.73
2022-08-12T02:02:00.401Z,18.70
2022-08-12T02:03:00.403Z,18.64
2022-08-12T02:04:00.377Z,18.60
2022-08-12T02:05:00.362Z,18.70
2022-08-12T02:06:00.351Z,18.61
2022-08-12T02:07:00.340Z,18.58
2022-08-12T02:08:00.327Z,18.43
2022-08-12T02:09:00.314Z,18.39
2022-08-12T02:10:00.301Z,18.33
2022-08-12T02:11:00.290Z,18.27
2022-08-12T02:12:00.621Z,18.24
2022-08-12T02:13:00.391Z,18.24
2022-08-12T02:14:00.251Z,18.24
2022-08-12T02:15:00.240Z,18.19
2022-08-12T02:16:00.228Z,18.08
2022-08-12T02:17:00.242Z,18.09
2022-08-12T02:18:00.228Z,18.11
2022-08-12T02:19:00.191Z,18.11
2022-08-12T02:20:00.206Z,18.13
2022-08-12T02:21:00.163Z,18.13
2022-08-12T02:22:00.153Z,18.11
2022-08-12T02:23:00.142Z,18.06
2022-08-12T02:24:00.130Z,18.05
2022-08-12T02:25:00.113Z,17.95
2022-08-12T02:26:00.120Z,17.94
2022-08-12T02:27:00.097Z,18.03
2022-08-12T02:28:00.089Z,17.95
2022-08-12T02:29:00.070Z,17.93
2022-08-12T02:30:00.056Z,17.86
2022-08-12T02:31:00.040Z,17.87
2022-08-12T02:32:00.027Z,17.80
2022-08-12T02:33:00.016Z,17.79
2022-08-12T02:34:00.001Z,17.78
2022-08-12T02:34:59.988Z,17.69
2022-08-12T02:35:59.979Z,17.73
2022-08-12T02:37:00.940Z,17.66
2022-08-12T02:37:59.951Z,17.68
2022-08-12T02:38:59.945Z,17.66
2022-08-12T02:39:59.985Z,17.53
2022-08-12T02:40:59.910Z,17.47
2022-08-12T02:41:59.901Z,17.52
2022-08-12T02:42:59.886Z,17.56
2022-08-12T02:43:59.878Z,17.44
2022-08-12T02:44:59.861Z,17.49
2022-08-12T02:45:59.849Z,17.49
2022-08-12T02:46:59.836Z,17.49
2022-08-12T02:48:01.341Z,17.47
2022-08-12T02:48:59.810Z,17.41
2022-08-12T02:49:59.800Z,17.50
2022-08-12T02:50:59.785Z,17.57
2022-08-12T02:51:59.788Z,17.52
2022-08-12T02:52:59.760Z,17.57
2022-08-12T02:54:04.513Z,17.57
2022-08-12T02:54:59.733Z,17.52
2022-08-12T02:55:59.721Z,17.65
2022-08-12T02:56:59.725Z,17.60
2022-08-12T02:57:59.705Z,17.63
2022-08-12T02:58:59.683Z,17.65
2022-08-12T02:59:59.672Z,17.50
2022-08-12T03:00:59.704Z,17.49
2022-08-12T03:01:59.647Z,17.50
2022-08-12T03:02:59.630Z,17.50
2022-08-12T03:03:59.618Z,17.44
2022-08-12T03:04:59.603Z,17.39
2022-08-12T03:05:59.596Z,17.35
2022-08-12T03:06:59.577Z,17.24
2022-08-12T03:08:00.251Z,17.20
2022-08-12T03:08:59.551Z,17.09
2022-08-12T03:10:05.239Z,17.13
2022-08-12T03:10:59.532Z,17.13
2022-08-12T03:11:59.527Z,16.95
2022-08-12T03:12:59.499Z,17.05
2022-08-12T03:13:59.487Z,16.91
2022-08-12T03:14:59.475Z,16.91
2022-08-12T03:15:59.487Z,16.84
2022-08-12T03:16:59.452Z,16.84
2022-08-12T03:18:24.062Z,16.73
2022-08-12T03:18:59.423Z,16.69
2022-08-12T03:20:10.127Z,16.68
2022-08-12T03:20:59.400Z,16.69
2022-08-12T03:22:09.537Z,16.64
2022-08-12T03:22:59.384Z,16.61
2022-08-12T03:23:59.391Z,16.58
2022-08-12T03:24:59.344Z,16.44
2022-08-12T03:25:59.440Z,16.49
2022-08-12T03:27:00.503Z,16.44
2022-08-12T03:27:59.306Z,16.44
2022-08-12T03:28:59.294Z,16.34
2022-08-12T03:29:59.282Z,16.31
2022-08-12T03:30:59.267Z,16.22
2022-08-12T03:31:59.252Z,16.22
2022-08-12T03:32:59.238Z,16.24
2022-08-12T03:34:01.882Z,16.13
2022-08-12T03:34:59.211Z,16.12
2022-08-12T03:35:59.200Z,16.16
2022-08-12T03:36:59.193Z,16.05
2022-08-12T03:37:59.173Z,15.96
2022-08-12T03:38:59.160Z,16.00
2022-08-12T03:39:59.288Z,15.88
2022-08-12T03:40:59.132Z,15.92
2022-08-12T03:41:59.119Z,15.96
2022-08-12T03:42:59.106Z,15.87
2022-08-12T03:43:59.110Z,15.91
2022-08-12T03:44:59.077Z,15.76
2022-08-12T03:45:59.064Z,15.75
2022-08-12T03:46:59.094Z,15.67
2022-08-12T03:47:59.039Z,15.72
2022-08-12T03:48:59.026Z,15.60
2022-08-12T03:49:59.010Z,15.66
2022-08-12T03:50:58.998Z,15.52
2022-08-12T03:51:58.990Z,15.48
2022-08-12T03:52:58.969Z,15.54
2022-08-12T03:53:58.957Z,15.51
2022-08-12T03:54:58.944Z,15.44
2022-08-12T03:55:58.936Z,15.45
2022-08-12T03:56:58.917Z,15.41
2022-08-12T03:57:58.907Z,15.33
2022-08-12T03:58:58.997Z,15.39
2022-08-12T03:59:58.878Z,15.37
2022-08-12T04:00:58.937Z,15.32
2022-08-12T04:01:58.846Z,15.15
2022-08-12T04:02:58.834Z,15.17
2022-08-12T04:03:58.823Z,15.15
2022-08-12T04:04:58.804Z,15.05
2022-08-12T04:05:58.799Z,15.05
2022-08-12T04:06:58.780Z,15.02
2022-08-12T04:07:58.770Z,15.00
2022-08-12T04:08:58.753Z,15.02
2022-08-12T04:09:58.744Z,14.92
2022-08-12T04:10:58.728Z,14.89
2022-08-12T04:11:58.713Z,14.90
2022-08-12T04:12:58.695Z,14.82
2022-08-12T04:13:58.688Z,14.90
2022-08-12T04:14:58.683Z,14.78
2022-08-12T04:15:58.659Z,14.81
2022-08-12T04:16:58.645Z,14.82
2022-08-12T04:18:06.089Z,14.82
2022-08-12T04:18:58.612Z,14.78
2022-08-12T04:19:58.604Z,14.74
2022-08-12T04:20:58.585Z,14.77
2022-08-12T04:22:02.180Z,14.74
2022-08-12T04:22:58.559Z,14.66
2022-08-12T04:23:58.544Z,14.67
2022-08-12T04:24:58.527Z,14.67
2022-08-12T04:25:58.516Z,14.67
2022-08-12T04:26:58.501Z,14.67
2022-08-12T04:27:58.489Z,14.62
2022-08-12T04:28:58.471Z,14.62
2022-08-12T04:30:32.062Z,14.62
2022-08-12T04:30:58.447Z,14.59
2022-08-12T04:31:58.440Z,14.51
2022-08-12T04:32:58.423Z,14.53
2022-08-12T04:33:58.406Z,14.52
2022-08-12T04:34:58.397Z,14.49
2022-08-12T04:35:58.379Z,14.43
2022-08-12T04:36:58.377Z,14.49
2022-08-12T04:38:00.621Z,14.43
2022-08-12T04:38:59.744Z,14.48
2022-08-12T04:39:58.472Z,14.44
2022-08-12T04:40:58.305Z,14.40
2022-08-12T04:41:58.903Z,14.44
2022-08-12T04:42:58.290Z,14.51
2022-08-12T04:44:02.291Z,14.45
2022-08-12T04:44:58.249Z,14.49
2022-08-12T04:45:58.238Z,14.44
2022-08-12T04:46:58.222Z,14.36
2022-08-12T04:47:58.207Z,14.41
2022-08-12T04:48:58.192Z,14.44
2022-08-12T04:49:58.179Z,14.48
2022-08-12T04:50:58.164Z,14.41
2022-08-12T04:51:58.969Z,14.44
2022-08-12T04:52:58.139Z,14.37
2022-08-12T04:53:58.120Z,14.40
2022-08-12T04:54:58.111Z,14.38
2022-08-12T04:55:58.101Z,14.33
2022-08-12T04:57:03.970Z,14.34
2022-08-12T04:57:58.063Z,14.26
2022-08-12T04:58:58.050Z,14.33
2022-08-12T04:59:58.038Z,14.34
2022-08-12T05:00:58.019Z,14.30
2022-08-12T05:01:58.045Z,14.34
2022-08-12T05:02:58.100Z,14.38
2022-08-12T05:03:57.980Z,14.38
2022-08-12T05:05:01.180Z,14.33
2022-08-12T05:05:57.956Z,14.31
2022-08-12T05:06:57.942Z,14.31
2022-08-12T05:07:57.924Z,14.40
2022-08-12T05:08:57.908Z,14.41
2022-08-12T05:10:00.463Z,14.49
2022-08-12T05:10:57.879Z,14.53
2022-08-12T05:11:58.025Z,14.53
2022-08-12T05:12:57.853Z,14.51
2022-08-12T05:13:57.837Z,14.59
2022-08-12T05:14:57.821Z,14.63
2022-08-12T05:16:05.498Z,14.58
2022-08-12T05:16:57.797Z,14.67
2022-08-12T05:18:00.163Z,14.73
2022-08-12T05:18:57.768Z,14.73
2022-08-12T05:19:57.993Z,14.78
2022-08-12T05:20:57.737Z,14.89
2022-08-12T05:21:57.727Z,14.90
2022-08-12T05:23:01.079Z,14.97
2022-08-12T05:23:57.698Z,15.02
2022-08-12T05:24:57.678Z,15.08
2022-08-12T05:25:57.673Z,15.08
2022-08-12T05:26:57.659Z,15.12
2022-08-12T05:27:59.007Z,15.19
2022-08-12T05:28:57.625Z,15.29
2022-08-12T05:30:06.468Z,15.37
2022-08-12T05:30:57.599Z,15.43
2022-08-12T05:31:57.586Z,15.44
2022-08-12T05:33:00.034Z,15.63
2022-08-12T05:33:57.556Z,15.69
2022-08-12T05:34:57.547Z,15.80
2022-08-12T05:35:57.528Z,15.91
2022-08-12T05:36:57.512Z,15.94
2022-08-12T05:37:57.499Z,15.99
2022-08-12T05:38:57.492Z,16.10
2022-08-12T05:39:57.509Z,16.22
2022-08-12T05:40:57.462Z,16.36
2022-08-12T05:41:57.445Z,16.51
2022-08-12T05:42:57.430Z,16.51
2022-08-12T05:43:57.418Z,16.66
2022-08-12T05:44:57.402Z,16.69
2022-08-12T05:45:57.392Z,16.83
2022-08-12T05:46:57.376Z,16.86
2022-08-12T05:47:57.364Z,16.97
2022-08-12T05:48:57.349Z,17.04
2022-08-12T05:49:57.339Z,17.20
2022-08-12T05:50:57.322Z,17.27
2022-08-12T05:51:57.309Z,17.28
2022-08-12T05:52:57.294Z,17.42
2022-08-12T05:53:57.284Z,17.46
2022-08-12T05:54:58.059Z,17.66
2022-08-12T05:55:57.258Z,17.79
2022-08-12T05:56:57.244Z,17.87
2022-08-12T05:57:57.228Z,17.93
2022-08-12T05:58:57.220Z,18.06
2022-08-12T05:59:57.209Z,18.23
2022-08-12T06:00:57.188Z,18.19
2022-08-12T06:02:08.819Z,18.33
2022-08-12T06:02:57.267Z,18.42
2022-08-12T06:03:57.150Z,18.48
2022-08-12T06:04:57.171Z,18.58
2022-08-12T06:05:57.167Z,18.61
2022-08-12T06:06:57.131Z,18.60
2022-08-12T06:08:01.347Z,18.68
2022-08-12T06:08:57.085Z,18.71
2022-08-12T06:09:57.074Z,18.74
2022-08-12T06:10:57.128Z,18.81
2022-08-12T06:12:04.459Z,18.89
2022-08-12T06:12:57.031Z,18.96
2022-08-12T06:13:57.021Z,18.97
2022-08-12T06:14:57.031Z,19.00
2022-08-12T06:15:56.996Z,19.11
2022-08-12T06:16:56.984Z,19.20
2022-08-12T06:17:56.970Z,19.23
2022-08-12T06:18:56.959Z,19.37
2022-08-12T06:20:28.305Z,19.30
2022-08-12T06:20:56.930Z,19.30
2022-08-12T06:21:56.926Z,19.39
2022-08-12T06:22:56.913Z,19.52
2022-08-12T06:23:56.896Z,19.45
2022-08-12T06:24:56.882Z,19.55
2022-08-12T06:25:56.876Z,19.62
2022-08-12T06:26:56.860Z,19.72
2022-08-12T06:28:07.441Z,19.85
2022-08-12T06:28:56.831Z,19.89
2022-08-12T06:30:06.940Z,19.97
2022-08-12T06:31:22.584Z,20.11
2022-08-12T06:31:56.795Z,20.14
2022-08-12T06:33:18.611Z,20.22
2022-08-12T06:35:22.589Z,20.30
2022-08-12T06:35:25.358Z,20.39
2022-08-12T06:36:05.557Z,20.53
2022-08-12T06:38:01.274Z,20.68
2022-08-12T06:39:01.312Z,20.74
2022-08-12T06:41:06.706Z,20.83
2022-08-12T06:42:32.722Z,20.95
2022-08-12T06:44:11.672Z,21.23
2022-08-12T06:45:12.425Z,21.35
2022-08-12T06:47:06.132Z,21.69
2022-08-12T06:48:06.013Z,21.74
2022-08-12T06:50:11.572Z,22.06
2022-08-12T06:51:11.468Z,22.14
2022-08-12T06:53:18.630Z,22.41
2022-08-12T06:54:18.702Z,22.58
2022-08-12T06:56:34.694Z,22.71
2022-08-12T06:58:01.731Z,22.89
2022-08-12T06:59:28.344Z,23.02
2022-08-12T07:00:32.413Z,23.10
2022-08-12T07:02:37.031Z,23.36
2022-08-12T07:03:33.763Z,23.45
2022-08-12T07:05:39.257Z,23.52
2022-08-12T07:06:39.238Z,23.66
2022-08-12T07:08:43.793Z,23.77
2022-08-12T07:10:04.499Z,23.76
2022-08-12T07:10:43.739Z,23.94
2022-08-12T07:11:43.735Z,24.01
2022-08-12T07:12:43.963Z,24.06
2022-08-12T07:14:02.660Z,24.10
2022-08-12T07:14:48.397Z,24.21
2022-08-12T07:15:43.692Z,24.29
2022-08-12T07:16:43.680Z,24.32
2022-08-12T07:17:43.670Z,24.44
2022-08-12T07:18:43.670Z,24.44
2022-08-12T07:19:45.392Z,24.58
2022-08-12T07:20:52.654Z,24.66
2022-08-12T07:22:00.049Z,24.69
2022-08-12T07:22:43.621Z,24.71
2022-08-12T07:23:43.608Z,24.78
2022-08-12T07:24:43.608Z,24.88
2022-08-12T07:25:43.590Z,24.89
2022-08-12T07:26:44.246Z,24.97
2022-08-12T07:27:43.580Z,25.00
2022-08-12T07:28:43.567Z,25.01
2022-08-12T07:29:58.024Z,25.11
2022-08-12T07:30:43.546Z,25.19
2022-08-12T07:31:43.540Z,25.22
2022-08-12T07:32:43.785Z,25.33
2022-08-12T07:33:43.531Z,25.41
2022-08-12T07:34:43.590Z,25.49
2022-08-12T07:35:43.499Z,25.58
2022-08-12T07:36:43.504Z,25.54
2022-08-12T07:37:43.486Z,25.62
2022-08-12T07:38:43.481Z,25.70
2022-08-12T07:39:50.693Z,25.68
2022-08-12T07:40:43.461Z,25.73
2022-08-12T07:41:43.449Z,25.85
2022-08-12T07:42:43.448Z,25.88
2022-08-12T07:43:43.435Z,25.95
2022-08-12T07:44:43.427Z,25.95
2022-08-12T07:45:43.416Z,25.96
2022-08-12T07:46:43.406Z,26.18
2022-08-12T07:47:43.677Z,26.26
2022-08-12T07:48:43.393Z,26.29
2022-08-12T07:50:05.112Z,26.39
2022-08-12T07:50:43.375Z,26.55
2022-08-12T07:51:43.367Z,26.63
2022-08-12T07:52:43.569Z,26.83
2022-08-12T07:53:50.167Z,26.86
2022-08-12T07:54:43.350Z,26.93
2022-08-12T07:55:43.351Z,27.13
2022-08-12T07:56:43.331Z,27.16
2022-08-12T07:57:43.329Z,27.33
2022-08-12T07:58:47.027Z,27.43
2022-08-12T07:59:43.315Z,27.55
2022-08-12T08:00:43.300Z,27.64
2022-08-12T08:01:43.359Z,27.75
2022-08-12T08:02:43.688Z,27.79
2022-08-12T08:03:47.607Z,27.85
2022-08-12T08:04:43.395Z,27.95
2022-08-12T08:05:43.293Z,27.97
2022-08-12T08:06:43.280Z,28.00
2022-08-12T08:07:43.256Z,28.09
2022-08-12T08:08:43.254Z,28.20
2022-08-12T08:09:43.250Z,28.38
2022-08-12T08:10:43.239Z,28.53
2022-08-12T08:11:43.232Z,28.56
2022-08-12T08:12:43.234Z,28.67
2022-08-12T08:13:43.226Z,28.72
2022-08-12T08:14:43.219Z,28.71
2022-08-12T08:16:02.595Z,28.84
2022-08-12T08:16:43.211Z,28.93
2022-08-12T08:17:43.211Z,29.10
2022-08-12T08:18:43.214Z,29.15
2022-08-12T08:20:02.055Z,29.30
2022-08-12T08:20:43.201Z,29.40
2022-08-12T08:21:43.190Z,29.47
2022-08-12T08:22:43.346Z,29.64
2022-08-12T08:23:43.174Z,29.80
2022-08-12T08:24:43.174Z,29.90
2022-08-12T08:25:43.168Z,30.03
2022-08-12T08:26:43.172Z,30.17
2022-08-12T08:27:43.162Z,30.27
2022-08-12T08:28:43.153Z,30.43
2022-08-12T08:29:43.151Z,30.51
2022-08-12T08:30:43.146Z,30.61
2022-08-12T08:31:45.398Z,30.73
2022-08-12T08:32:43.139Z,30.92
2022-08-12T08:34:04.282Z,30.95
2022-08-12T08:34:53.885Z,31.00
2022-08-12T08:35:46.820Z,30.99
2022-08-12T08:36:43.130Z,31.08
2022-08-12T08:37:43.126Z,31.13
2022-08-12T08:38:43.121Z,31.26
2022-08-12T08:39:43.171Z,31.41
2022-08-12T08:40:43.112Z,31.55
2022-08-12T08:42:16.029Z,31.59
2022-08-12T08:42:45.990Z,31.67
2022-08-12T08:43:44.171Z,31.82
2022-08-12T08:44:43.101Z,31.85
2022-08-12T08:45:43.096Z,31.93
2022-08-12T08:46:43.103Z,32.09
2022-08-12T08:47:43.092Z,32.24
2022-08-12T08:48:43.092Z,32.56
2022-08-12T08:49:43.085Z,32.60
2022-08-12T08:50:43.085Z,32.73
2022-08-12T08:51:43.082Z,32.83
2022-08-12T08:52:43.287Z,32.91
2022-08-12T08:53:43.086Z,32.90
2022-08-12T08:54:43.075Z,33.04
2022-08-12T08:56:04.083Z,33.20
2022-08-12T08:56:43.077Z,33.29
2022-08-12T08:57:44.771Z,33.35
2022-08-12T08:58:43.070Z,33.42
2022-08-12T08:59:43.085Z,33.57
2022-08-12T09:00:43.065Z,33.60
2022-08-12T09:01:44.530Z,33.58
2022-08-12T09:02:49.481Z,33.70
2022-08-12T09:05:07.720Z,33.81
2022-08-12T09:05:12.545Z,33.95
2022-08-12T09:06:02.758Z,33.91
2022-08-12T09:07:51.150Z,33.85
2022-08-12T09:08:43.104Z,33.92
2022-08-12T09:10:02.651Z,33.87
2022-08-12T09:10:45.279Z,33.92
2022-08-12T09:12:10.982Z,33.95
2022-08-12T09:12:43.045Z,33.97
2022-08-12T09:14:43.048Z,34.14
2022-08-12T09:15:43.044Z,34.07
2022-08-12T09:16:43.039Z,34.24
2022-08-12T09:17:43.446Z,34.31
2022-08-12T09:18:43.050Z,34.51
2022-08-12T09:19:43.795Z,34.78
2022-08-12T09:20:43.036Z,34.83
2022-08-12T09:21:54.251Z,35.05
2022-08-12T09:22:43.317Z,35.26
2022-08-12T09:24:00.568Z,35.54
2022-08-12T09:24:43.028Z,35.69
2022-08-12T09:25:43.027Z,35.79
2022-08-12T09:26:46.366Z,35.76
2022-08-12T09:28:43.024Z,35.97
2022-08-12T09:30:10.745Z,36.00
2022-08-12T09:30:43.026Z,36.09
2022-08-12T09:32:04.179Z,36.20
2022-08-12T09:33:03.971Z,36.13
2022-08-12T09:34:26.813Z,36.16
2022-08-12T09:34:44.000Z,36.05
2022-08-12T09:35:43.565Z,35.93
2022-08-12T09:36:58.058Z,35.96
2022-08-12T09:37:57.553Z,35.93
2022-08-12T09:38:58.924Z,35.93
2022-08-12T09:40:02.131Z,35.90
2022-08-12T09:41:01.405Z,35.79
2022-08-12T09:42:34.255Z,35.78
2022-08-12T09:42:56.900Z,35.66
2022-08-12T09:43:46.817Z,35.61
2022-08-12T09:44:43.163Z,35.53
2022-08-12T09:46:19.739Z,35.41
2022-08-12T09:46:43.101Z,35.38
2022-08-12T09:47:43.012Z,35.26
2022-08-12T09:48:44.899Z,35.27
2022-08-12T09:49:43.003Z,35.38
2022-08-12T09:50:43.010Z,35.57
2022-08-12T09:51:43.990Z,35.74
2022-08-12T09:52:43.223Z,35.94
2022-08-12T09:53:43.073Z,36.13
2022-08-12T09:54:43.288Z,36.18
2022-08-12T09:55:59.585Z,36.26
2022-08-12T09:57:00.231Z,36.16
2022-08-12T09:58:46.680Z,36.17
2022-08-12T09:58:58.149Z,36.31
2022-08-12T10:00:15.655Z,36.35
2022-08-12T10:00:52.258Z,36.44
2022-08-12T10:02:42.925Z,36.57
2022-08-12T10:02:50.065Z,36.72
2022-08-12T10:04:03.535Z,36.92
2022-08-12T10:04:51.345Z,37.19
2022-08-12T10:06:20.138Z,37.40
2022-08-12T10:06:54.046Z,37.73
2022-08-12T10:07:42.992Z,37.79
2022-08-12T10:08:42.992Z,37.91
2022-08-12T10:09:57.952Z,38.07
2022-08-12T10:10:42.994Z,38.27
2022-08-12T10:12:11.935Z,38.28
2022-08-12T10:12:43.568Z,38.20
2022-08-12T10:13:42.992Z,38.31
2022-08-12T10:14:50.287Z,38.22
2022-08-12T10:16:00.558Z,38.22
2022-08-12T10:16:42.992Z,38.10
2022-08-12T10:17:56.903Z,38.13
2022-08-12T10:18:52.316Z,38.20
2022-08-12T10:19:51.581Z,38.32
2022-08-12T10:20:42.999Z,38.34
2022-08-12T10:21:42.994Z,38.44
2022-08-12T10:22:43.131Z,38.42
2022-08-12T10:23:45.941Z,38.36
2022-08-12T10:24:42.995Z,38.42
2022-08-12T10:26:37.520Z,38.42
2022-08-12T10:26:42.990Z,38.50
2022-08-12T10:28:05.289Z,38.41
2022-08-12T10:28:43.011Z,38.19
2022-08-12T10:30:03.378Z,38.01
2022-08-12T10:30:46.808Z,37.66
2022-08-12T10:32:01.694Z,37.36
2022-08-12T10:33:02.568Z,37.21
2022-08-12T10:33:54.100Z,37.14
2022-08-12T10:34:53.628Z,36.92
2022-08-12T10:35:43.002Z,36.85
2022-08-12T10:36:44.320Z,36.63
2022-08-12T10:38:34.420Z,36.47
2022-08-12T10:38:44.266Z,36.32
2022-08-12T10:40:00.985Z,36.44
2022-08-12T10:40:43.050Z,36.39
2022-08-12T10:41:58.100Z,36.59
2022-08-12T10:42:46.319Z,36.89
2022-08-12T10:43:55.278Z,37.06
2022-08-12T10:44:42.998Z,37.09
2022-08-12T10:45:42.994Z,37.21
2022-08-12T10:46:42.993Z,37.16
2022-08-12T10:48:07.391Z,37.31
2022-08-12T10:48:42.998Z,37.44
2022-08-12T10:50:04.822Z,37.60
2022-08-12T10:51:02.126Z,37.57
2022-08-12T10:52:04.671Z,37.79
2022-08-12T10:52:42.993Z,38.12
2022-08-12T10:53:43.716Z,38.27
2022-08-12T10:54:43.002Z,38.54
2022-08-12T10:55:42.996Z,38.75
2022-08-12T10:56:42.997Z,38.85
2022-08-12T10:58:15.244Z,38.90
2022-08-12T10:58:44.875Z,38.88
2022-08-12T11:00:30.304Z,39.05
2022-08-12T11:00:55.262Z,39.15
2022-08-12T11:04:16.960Z,39.39
2022-08-12T11:04:25.808Z,39.83
2022-08-12T11:04:28.358Z,39.63
2022-08-12T11:04:49.741Z,40.08
2022-08-12T11:07:05.151Z,40.64
2022-08-12T11:07:06.728Z,40.39
2022-08-12T11:08:33.576Z,40.74
2022-08-12T11:08:46.341Z,40.76
2022-08-12T11:09:56.742Z,40.62
2022-08-12T11:10:43.005Z,40.55
2022-08-12T11:12:36.619Z,40.62
2022-08-12T11:12:58.918Z,40.62
2022-08-12T11:13:46.764Z,40.52
2022-08-12T11:14:47.966Z,40.39
2022-08-12T11:16:18.937Z,40.34
2022-08-12T11:17:33.551Z,40.10
2022-08-12T11:17:52.825Z,39.94
2022-08-12T11:18:43.013Z,39.82
2022-08-12T11:19:43.018Z,39.68
2022-08-12T11:20:43.023Z,39.82
2022-08-12T11:21:58.009Z,39.76
2022-08-12T11:22:43.205Z,39.71
2022-08-12T11:23:43.021Z,39.60
2022-08-12T11:24:51.179Z,39.57
2022-08-12T11:25:57.745Z,39.60
2022-08-12T11:26:43.054Z,39.82
2022-08-12T11:27:43.356Z,40.14
2022-08-12T11:28:43.037Z,40.29
2022-08-12T11:30:07.120Z,40.32
2022-08-12T11:30:43.183Z,40.32
2022-08-12T11:32:02.098Z,40.34
2022-08-12T11:32:43.030Z,40.58
2022-08-12T11:34:04.210Z,40.40
2022-08-12T11:34:53.607Z,40.35
2022-08-12T11:35:43.175Z,40.35
2022-08-12T11:36:43.080Z,40.48
2022-08-12T11:37:59.403Z,40.54
2022-08-12T11:38:43.012Z,40.49
2022-08-12T11:40:03.065Z,40.34
2022-08-12T11:40:43.251Z,40.39
2022-08-12T11:41:43.222Z,40.39
2022-08-12T11:42:45.978Z,40.44
2022-08-12T11:43:50.776Z,40.54
2022-08-12T11:44:43.526Z,40.71
2022-08-12T11:45:46.848Z,40.73
2022-08-12T11:46:43.024Z,40.80
2022-08-12T11:47:43.024Z,40.92
2022-08-12T11:48:52.469Z,41.03
2022-08-12T11:49:45.708Z,41.15
2022-08-12T11:50:43.035Z,41.17
2022-08-12T11:51:43.038Z,41.15
2022-08-12T11:52:56.809Z,41.07
2022-08-12T11:53:57.338Z,41.33
2022-08-12T11:54:43.039Z,41.57
2022-08-12T11:55:46.727Z,41.76
2022-08-12T11:56:59.259Z,41.99
2022-08-12T11:58:08.163Z,42.00
2022-08-12T12:02:02.558Z,42.12
2022-08-12T12:02:43.386Z,42.18
2022-08-12T12:03:46.428Z,42.12
2022-08-12T12:04:43.070Z,41.80
2022-08-12T12:05:45.814Z,41.24
2022-08-12T12:06:43.067Z,40.86
2022-08-12T12:08:38.366Z,40.59
2022-08-12T12:08:47.005Z,40.02
2022-08-12T12:09:52.459Z,39.59
2022-08-12T12:10:43.079Z,39.25
2022-08-12T12:11:48.828Z,38.92
2022-08-12T12:12:50.092Z,38.70
2022-08-12T12:14:07.856Z,38.63
2022-08-12T12:14:43.084Z,38.66
2022-08-12T12:15:43.091Z,38.75
2022-08-12T12:16:49.919Z,39.04
2022-08-12T12:17:43.092Z,39.23
2022-08-12T12:18:43.091Z,39.48
2022-08-12T12:19:46.106Z,39.79
2022-08-12T12:20:43.097Z,40.00
2022-08-12T12:21:47.153Z,40.23
2022-08-12T12:22:45.100Z,40.35
2022-08-12T12:23:46.899Z,40.55
2022-08-12T12:24:43.101Z,40.86
2022-08-12T12:26:06.949Z,41.11
2022-08-12T12:26:43.101Z,41.27
2022-08-12T12:28:04.394Z,41.45
2022-08-12T12:28:54.538Z,41.49
2022-08-12T12:30:13.648Z,41.32
2022-08-12T12:30:54.682Z,41.14
2022-08-12T12:32:10.109Z,40.92
2022-08-12T12:32:43.339Z,40.78
2022-08-12T12:33:57.228Z,40.69
2022-08-12T12:35:13.939Z,40.35
2022-08-12T12:36:06.243Z,39.91
2022-08-12T12:36:43.119Z,39.46
2022-08-12T12:38:04.002Z,39.07
2022-08-12T12:39:54.745Z,39.22
2022-08-12T12:40:50.447Z,39.34
2022-08-12T12:42:58.818Z,39.15
2022-08-12T12:43:56.431Z,39.22
2022-08-12T12:45:59.545Z,39.34
2022-08-12T12:46:59.531Z,39.60
2022-08-12T12:48:52.960Z,39.85
2022-08-12T12:49:53.655Z,40.01
2022-08-12T12:52:19.099Z,40.31
2022-08-12T12:52:57.432Z,40.59
2022-08-12T12:55:02.916Z,41.00
2022-08-12T12:56:02.899Z,41.39
2022-08-12T12:58:08.377Z,41.55
2022-08-12T12:59:55.383Z,41.60
2022-08-12T13:01:27.866Z,41.03
2022-08-12T13:02:13.876Z,40.29
2022-08-12T13:04:18.359Z,39.42
2022-08-12T13:05:18.354Z,39.37
2022-08-12T13:07:23.844Z,39.63
2022-08-12T13:08:28.411Z,39.67
2022-08-12T13:10:30.764Z,39.61
2022-08-12T13:11:40.651Z,39.46
2022-08-12T13:14:09.179Z,38.51
2022-08-12T13:14:32.769Z,38.28
2022-08-12T13:15:45.096Z,38.10
2022-08-12T13:16:32.766Z,38.05
2022-08-12T13:18:02.316Z,38.02
2022-08-12T13:18:32.764Z,38.04
2022-08-12T13:19:38.754Z,37.79
2022-08-12T13:20:37.323Z,37.78
2022-08-12T13:21:36.469Z,37.79
2022-08-12T13:22:32.764Z,37.90